sensor_id;sensor_type;location;lat;lon;timestamp;pressure;altitude;pressure_sealevel;temperature;humidity
45621;BME280;31345;51.522;10.702;2023-12-20T00:02:11;98707.13;;;5.60;100.00
45621;BME280;31345;51.522;10.702;2023-12-20T00:04:43;98703.16;;;5.53;100.00
45621;BME280;31345;51.522;10.702;2023-12-20T00:07:11;98697.97;;;5.53;100.00
45621;BME280;31345;51.522;10.702;2023-12-20T00:09:38;98703.44;;;5.64;100.00
45621;BME280;31345;51.522;10.702;2023-12-20T00:12:05;98704.69;;;5.57;100.00
45621;BME280;31345;51.522;10.702;2023-12-20T00:14:33;98706.41;;;5.56;100.00
45621;BME280;31345;51.522;10.702;2023-12-20T00:17:00;98696.91;;;5.57;100.00
45621;BME280;31345;51.522;10.702;2023-12-20T00:19:34;98691.56;;;5.60;100.00
45621;BME280;31345;51.522;10.702;2023-12-20T00:22:06;98691.56;;;5.60;100.00
45621;BME280;31345;51.522;10.702;2023-12-20T00:25:19;98692.31;;;5.62;100.00
45621;BME280;31345;51.522;10.702;2023-12-20T00:28:58;98699.00;;;5.66;100.00
45621;BME280;31345;51.522;10.702;2023-12-20T00:35:01;98692.31;;;5.62;100.00
45621;BME280;31345;51.522;10.702;2023-12-20T00:37:28;98683.09;;;5.56;100.00
45621;BME280;31345;51.522;10.702;2023-12-20T00:40:01;98682.34;;;5.54;100.00
45621;BME280;31345;51.522;10.702;2023-12-20T00:42:28;98685.22;;;5.48;100.00
45621;BME280;31345;51.522;10.702;2023-12-20T00:45:01;98686.31;;;5.44;100.00
45621;BME280;31345;51.522;10.702;2023-12-20T00:47:34;98697.94;;;5.36;100.00
45621;BME280;31345;51.522;10.702;2023-12-20T00:50:08;98696.38;;;5.50;100.00
45621;BME280;31345;51.522;10.702;2023-12-20T00:52:36;98690.97;;;5.55;100.00
45621;BME280;31345;51.522;10.702;2023-12-20T00:55:08;98689.59;;;5.47;100.00
45621;BME280;31345;51.522;10.702;2023-12-20T00:57:35;98683.56;;;5.65;100.00
45621;BME280;31345;51.522;10.702;2023-12-20T01:00:09;98678.34;;;5.65;100.00
45621;BME280;31345;51.522;10.702;2023-12-20T01:02:36;98674.41;;;5.57;100.00
45621;BME280;31345;51.522;10.702;2023-12-20T01:05:10;98674.69;;;5.69;100.00
45621;BME280;31345;51.522;10.702;2023-12-20T01:07:43;98668.38;;;5.57;100.00
45621;BME280;31345;51.522;10.702;2023-12-20T01:10:10;98672.63;;;5.58;100.00
45621;BME280;31345;51.522;10.702;2023-12-20T01:12:43;98669.09;;;5.76;100.00
45621;BME280;31345;51.522;10.702;2023-12-20T01:15:10;98664.53;;;5.64;100.00
45621;BME280;31345;51.522;10.702;2023-12-20T01:17:42;98665.13;;;5.53;100.00
45621;BME280;31345;51.522;10.702;2023-12-20T01:20:16;98676.06;;;5.58;100.00
45621;BME280;31345;51.522;10.702;2023-12-20T01:22:51;98666.91;;;5.69;100.00
45621;BME280;31345;51.522;10.702;2023-12-20T01:25:23;98673.69;;;5.71;100.00
45621;BME280;31345;51.522;10.702;2023-12-20T01:27:51;98671.63;;;5.60;100.00
45621;BME280;31345;51.522;10.702;2023-12-20T01:30:18;98667.94;;;5.48;100.00
45621;BME280;31345;51.522;10.702;2023-12-20T01:32:51;98667.78;;;5.52;100.00
45621;BME280;31345;51.522;10.702;2023-12-20T01:35:25;98662.66;;;5.50;100.00
45621;BME280;31345;51.522;10.702;2023-12-20T01:37:52;98665.63;;;5.60;100.00
45621;BME280;31345;51.522;10.702;2023-12-20T01:40:27;98664.03;;;5.57;100.00
45621;BME280;31345;51.522;10.702;2023-12-20T01:43:00;98654.41;;;5.59;100.00
45621;BME280;31345;51.522;10.702;2023-12-20T01:45:27;98658.84;;;5.57;100.00
45621;BME280;31345;51.522;10.702;2023-12-20T01:47:57;98661.38;;;5.59;100.00
45621;BME280;31345;51.522;10.702;2023-12-20T01:50:34;98656.56;;;5.51;100.00
45621;BME280;31345;51.522;10.702;2023-12-20T01:53:03;98665.75;;;5.41;100.00
45621;BME280;31345;51.522;10.702;2023-12-20T01:55:34;98666.13;;;5.50;100.00
45621;BME280;31345;51.522;10.702;2023-12-20T01:58:09;98659.00;;;5.54;100.00
45621;BME280;31345;51.522;10.702;2023-12-20T02:00:42;98646.63;;;5.59;100.00
45621;BME280;31345;51.522;10.702;2023-12-20T02:03:09;98639.50;;;5.47;100.00
45621;BME280;31345;51.522;10.702;2023-12-20T02:05:38;98643.38;;;5.38;100.00
45621;BME280;31345;51.522;10.702;2023-12-20T02:08:11;98634.47;;;5.44;100.00
45621;BME280;31345;51.522;10.702;2023-12-20T02:10:43;98635.16;;;5.47;100.00
45621;BME280;31345;51.522;10.702;2023-12-20T02:13:16;98638.47;;;5.49;100.00
45621;BME280;31345;51.522;10.702;2023-12-20T02:15:48;98630.81;;;5.64;100.00
45621;BME280;31345;51.522;10.702;2023-12-20T02:18:16;98639.63;;;5.78;100.00
45621;BME280;31345;51.522;10.702;2023-12-20T02:20:50;98644.06;;;5.75;100.00
45621;BME280;31345;51.522;10.702;2023-12-20T02:23:23;98643.72;;;5.66;100.00
45621;BME280;31345;51.522;10.702;2023-12-20T02:25:56;98634.44;;;5.61;100.00
45621;BME280;31345;51.522;10.702;2023-12-20T02:28:29;98631.09;;;5.75;100.00
45621;BME280;31345;51.522;10.702;2023-12-20T02:31:02;98632.00;;;5.74;100.00
45621;BME280;31345;51.522;10.702;2023-12-20T02:33:34;98636.78;;;5.82;100.00
45621;BME280;31345;51.522;10.702;2023-12-20T02:36:02;98637.78;;;5.80;100.00
45621;BME280;31345;51.522;10.702;2023-12-20T02:38:31;98631.09;;;5.92;100.00
45621;BME280;31345;51.522;10.702;2023-12-20T02:40:58;98627.00;;;5.87;100.00
45621;BME280;31345;51.522;10.702;2023-12-20T02:43:31;98621.81;;;5.87;100.00
45621;BME280;31345;51.522;10.702;2023-12-20T02:45:58;98634.69;;;5.89;100.00
45621;BME280;31345;51.522;10.702;2023-12-20T02:48:30;98636.63;;;5.85;100.00
45621;BME280;31345;51.522;10.702;2023-12-20T02:51:03;98638.81;;;5.77;100.00
45621;BME280;31345;51.522;10.702;2023-12-20T02:53:32;98637.88;;;5.78;100.00
45621;BME280;31345;51.522;10.702;2023-12-20T02:55:59;98641.31;;;5.79;100.00
45621;BME280;31345;51.522;10.702;2023-12-20T02:58:32;98648.09;;;5.81;100.00
45621;BME280;31345;51.522;10.702;2023-12-20T03:01:00;98646.66;;;5.75;100.00
45621;BME280;31345;51.522;10.702;2023-12-20T03:03:32;98647.31;;;5.79;100.00
45621;BME280;31345;51.522;10.702;2023-12-20T03:06:04;98657.94;;;5.74;100.00
45621;BME280;31345;51.522;10.702;2023-12-20T03:08:38;98646.91;;;5.71;100.00
45621;BME280;31345;51.522;10.702;2023-12-20T03:11:12;98650.16;;;5.74;100.00
45621;BME280;31345;51.522;10.702;2023-12-20T03:13:39;98643.28;;;5.73;100.00
45621;BME280;31345;51.522;10.702;2023-12-20T03:16:13;98640.44;;;5.62;100.00
45621;BME280;31345;51.522;10.702;2023-12-20T03:18:47;98638.59;;;5.64;100.00
45621;BME280;31345;51.522;10.702;2023-12-20T03:21:19;98645.63;;;5.62;100.00
45621;BME280;31345;51.522;10.702;2023-12-20T03:23:53;98655.38;;;5.41;100.00
45621;BME280;31345;51.522;10.702;2023-12-20T03:26:25;98650.09;;;5.42;100.00
45621;BME280;31345;51.522;10.702;2023-12-20T03:28:58;98650.00;;;5.44;100.00
45621;BME280;31345;51.522;10.702;2023-12-20T03:31:25;98647.97;;;5.50;100.00
45621;BME280;31345;51.522;10.702;2023-12-20T03:33:57;98642.16;;;5.45;100.00
45621;BME280;31345;51.522;10.702;2023-12-20T03:36:25;98642.84;;;5.49;100.00
45621;BME280;31345;51.522;10.702;2023-12-20T03:38:54;98627.44;;;5.46;100.00
45621;BME280;31345;51.522;10.702;2023-12-20T03:41:21;98612.72;;;5.46;100.00
45621;BME280;31345;51.522;10.702;2023-12-20T03:43:48;98617.00;;;5.47;100.00
45621;BME280;31345;51.522;10.702;2023-12-20T03:46:16;98622.34;;;5.44;100.00
45621;BME280;31345;51.522;10.702;2023-12-20T03:48:43;98636.31;;;5.42;100.00
45621;BME280;31345;51.522;10.702;2023-12-20T03:51:10;98645.59;;;5.46;100.00
45621;BME280;31345;51.522;10.702;2023-12-20T03:53:43;98643.94;;;5.27;100.00
45621;BME280;31345;51.522;10.702;2023-12-20T03:56:11;98647.97;;;5.33;100.00
45621;BME280;31345;51.522;10.702;2023-12-20T03:58:44;98646.09;;;5.19;100.00
45621;BME280;31345;51.522;10.702;2023-12-20T04:01:11;98651.13;;;5.22;100.00
45621;BME280;31345;51.522;10.702;2023-12-20T04:03:39;98653.66;;;5.23;100.00
45621;BME280;31345;51.522;10.702;2023-12-20T04:06:16;98663.47;;;5.34;100.00
45621;BME280;31345;51.522;10.702;2023-12-20T04:08:49;98654.09;;;5.32;100.00
45621;BME280;31345;51.522;10.702;2023-12-20T04:11:22;98651.06;;;5.23;100.00
45621;BME280;31345;51.522;10.702;2023-12-20T04:13:50;98658.34;;;5.33;100.00
45621;BME280;31345;51.522;10.702;2023-12-20T04:16:22;98644.78;;;5.28;100.00
45621;BME280;31345;51.522;10.702;2023-12-20T04:18:49;98643.78;;;5.30;100.00
45621;BME280;31345;51.522;10.702;2023-12-20T04:21:17;98641.56;;;5.40;100.00
45621;BME280;31345;51.522;10.702;2023-12-20T04:23:49;98632.28;;;5.36;100.00
45621;BME280;31345;51.522;10.702;2023-12-20T04:26:23;98642.78;;;5.33;100.00
45621;BME280;31345;51.522;10.702;2023-12-20T04:28:55;98645.53;;;5.30;100.00
45621;BME280;31345;51.522;10.702;2023-12-20T04:31:23;98642.66;;;5.36;100.00
45621;BME280;31345;51.522;10.702;2023-12-20T04:33:55;98652.59;;;5.44;100.00
45621;BME280;31345;51.522;10.702;2023-12-20T04:36:27;98646.25;;;5.49;100.00
45621;BME280;31345;51.522;10.702;2023-12-20T04:39:01;98635.38;;;5.43;100.00
45621;BME280;31345;51.522;10.702;2023-12-20T04:41:35;98646.41;;;5.46;100.00
45621;BME280;31345;51.522;10.702;2023-12-20T04:44:03;98652.22;;;5.52;100.00
45621;BME280;31345;51.522;10.702;2023-12-20T04:46:35;98649.72;;;5.50;100.00
45621;BME280;31345;51.522;10.702;2023-12-20T04:49:03;98645.69;;;5.44;100.00
45621;BME280;31345;51.522;10.702;2023-12-20T04:51:33;98642.44;;;5.23;100.00
45621;BME280;31345;51.522;10.702;2023-12-20T04:54:05;98636.34;;;5.06;100.00
45621;BME280;31345;51.522;10.702;2023-12-20T04:56:33;98635.38;;;4.91;100.00
45621;BME280;31345;51.522;10.702;2023-12-20T04:59:01;98638.72;;;4.76;100.00
45621;BME280;31345;51.522;10.702;2023-12-20T05:01:29;98642.31;;;4.73;100.00
45621;BME280;31345;51.522;10.702;2023-12-20T05:04:01;98637.94;;;4.73;100.00
45621;BME280;31345;51.522;10.702;2023-12-20T05:06:33;98639.16;;;4.66;100.00
45621;BME280;31345;51.522;10.702;2023-12-20T05:09:06;98642.59;;;4.67;100.00
45621;BME280;31345;51.522;10.702;2023-12-20T05:11:38;98635.16;;;4.61;100.00
45621;BME280;31345;51.522;10.702;2023-12-20T05:14:12;98638.19;;;4.69;100.00
45621;BME280;31345;51.522;10.702;2023-12-20T05:16:39;98651.69;;;4.76;100.00
45621;BME280;31345;51.522;10.702;2023-12-20T05:19:07;98644.50;;;4.81;100.00
45621;BME280;31345;51.522;10.702;2023-12-20T05:21:34;98641.63;;;4.87;100.00
45621;BME280;31345;51.522;10.702;2023-12-20T05:24:07;98636.97;;;4.94;100.00
45621;BME280;31345;51.522;10.702;2023-12-20T05:26:35;98638.03;;;5.07;100.00
45621;BME280;31345;51.522;10.702;2023-12-20T05:29:02;98637.03;;;5.10;100.00
45621;BME280;31345;51.522;10.702;2023-12-20T05:31:31;98643.91;;;5.11;100.00
45621;BME280;31345;51.522;10.702;2023-12-20T05:33:58;98637.88;;;5.10;100.00
45621;BME280;31345;51.522;10.702;2023-12-20T05:36:26;98650.16;;;5.07;100.00
45621;BME280;31345;51.522;10.702;2023-12-20T05:38:53;98639.53;;;5.11;100.00
45621;BME280;31345;51.522;10.702;2023-12-20T05:41:21;98643.28;;;5.06;100.00
45621;BME280;31345;51.522;10.702;2023-12-20T05:43:54;98647.16;;;5.15;100.00
45621;BME280;31345;51.522;10.702;2023-12-20T05:46:21;98637.72;;;5.14;100.00
45621;BME280;31345;51.522;10.702;2023-12-20T05:48:50;98644.59;;;4.97;100.00
45621;BME280;31345;51.522;10.702;2023-12-20T05:51:22;98653.06;;;4.83;100.00
45621;BME280;31345;51.522;10.702;2023-12-20T05:53:50;98643.84;;;4.77;100.00
45621;BME280;31345;51.522;10.702;2023-12-20T05:56:22;98645.13;;;4.68;100.00
45621;BME280;31345;51.522;10.702;2023-12-20T05:58:54;98629.72;;;4.65;100.00
45621;BME280;31345;51.522;10.702;2023-12-20T06:01:27;98641.38;;;4.56;100.00
45621;BME280;31345;51.522;10.702;2023-12-20T06:04:00;98625.00;;;4.56;100.00
45621;BME280;31345;51.522;10.702;2023-12-20T06:06:29;98629.41;;;4.54;100.00
45621;BME280;31345;51.522;10.702;2023-12-20T06:09:02;98629.00;;;4.44;100.00
45621;BME280;31345;51.522;10.702;2023-12-20T06:11:35;98631.19;;;4.53;100.00
45621;BME280;31345;51.522;10.702;2023-12-20T06:14:07;98644.13;;;4.53;100.00
45621;BME280;31345;51.522;10.702;2023-12-20T06:16:35;98646.25;;;4.45;100.00
45621;BME280;31345;51.522;10.702;2023-12-20T06:19:03;98647.59;;;4.52;100.00
45621;BME280;31345;51.522;10.702;2023-12-20T06:21:31;98643.72;;;4.43;100.00
45621;BME280;31345;51.522;10.702;2023-12-20T06:24:04;98648.34;;;4.37;100.00
45621;BME280;31345;51.522;10.702;2023-12-20T06:26:36;98647.72;;;4.31;100.00
45621;BME280;31345;51.522;10.702;2023-12-20T06:29:08;98640.94;;;4.29;100.00
45621;BME280;31345;51.522;10.702;2023-12-20T06:31:36;98642.94;;;4.41;100.00
45621;BME280;31345;51.522;10.702;2023-12-20T06:34:04;98643.28;;;4.53;100.00
45621;BME280;31345;51.522;10.702;2023-12-20T06:36:37;98643.66;;;4.63;100.00
45621;BME280;31345;51.522;10.702;2023-12-20T06:39:09;98643.19;;;4.72;100.00
45621;BME280;31345;51.522;10.702;2023-12-20T06:41:43;98632.03;;;4.71;100.00
45621;BME280;31345;51.522;10.702;2023-12-20T06:44:11;98638.28;;;4.67;100.00
45621;BME280;31345;51.522;10.702;2023-12-20T06:46:43;98628.44;;;4.74;100.00
45621;BME280;31345;51.522;10.702;2023-12-20T06:49:17;98630.03;;;4.77;100.00
45621;BME280;31345;51.522;10.702;2023-12-20T06:51:49;98631.56;;;4.81;100.00
45621;BME280;31345;51.522;10.702;2023-12-20T06:54:17;98623.72;;;4.82;100.00
45621;BME280;31345;51.522;10.702;2023-12-20T06:56:49;98621.66;;;4.89;100.00
45621;BME280;31345;51.522;10.702;2023-12-20T06:59:16;98621.50;;;4.92;100.00
45621;BME280;31345;51.522;10.702;2023-12-20T07:01:49;98623.47;;;5.05;100.00
45621;BME280;31345;51.522;10.702;2023-12-20T07:04:17;98616.91;;;4.97;100.00
45621;BME280;31345;51.522;10.702;2023-12-20T07:06:51;98618.28;;;4.69;100.00
45621;BME280;31345;51.522;10.702;2023-12-20T07:09:27;98627.84;;;4.69;100.00
45621;BME280;31345;51.522;10.702;2023-12-20T07:11:55;98638.47;;;4.63;100.00
45621;BME280;31345;51.522;10.702;2023-12-20T07:14:27;98635.34;;;4.73;100.00
45621;BME280;31345;51.522;10.702;2023-12-20T07:17:00;98632.84;;;4.72;100.00
45621;BME280;31345;51.522;10.702;2023-12-20T07:19:34;98631.88;;;4.75;100.00
45621;BME280;31345;51.522;10.702;2023-12-20T07:22:01;98632.84;;;4.72;100.00
45621;BME280;31345;51.522;10.702;2023-12-20T07:24:28;98630.09;;;4.75;100.00
45621;BME280;31345;51.522;10.702;2023-12-20T07:27:01;98636.00;;;4.79;100.00
45621;BME280;31345;51.522;10.702;2023-12-20T07:29:33;98637.22;;;4.71;100.00
45621;BME280;31345;51.522;10.702;2023-12-20T07:32:06;98630.97;;;4.76;100.00
45621;BME280;31345;51.522;10.702;2023-12-20T07:34:40;98639.09;;;4.68;100.00
45621;BME280;31345;51.522;10.702;2023-12-20T07:37:08;98633.44;;;4.59;100.00
45621;BME280;31345;51.522;10.702;2023-12-20T07:39:36;98632.97;;;4.51;100.00
45621;BME280;31345;51.522;10.702;2023-12-20T07:42:04;98637.34;;;4.51;100.00
45621;BME280;31345;51.522;10.702;2023-12-20T07:44:31;98631.84;;;4.57;100.00
45621;BME280;31345;51.522;10.702;2023-12-20T07:46:58;98634.75;;;4.68;100.00
45621;BME280;31345;51.522;10.702;2023-12-20T07:49:32;98638.94;;;4.71;100.00
45621;BME280;31345;51.522;10.702;2023-12-20T07:52:06;98641.63;;;4.87;100.00
45621;BME280;31345;51.522;10.702;2023-12-20T07:54:39;98632.94;;;4.88;100.00
45621;BME280;31345;51.522;10.702;2023-12-20T07:57:12;98642.38;;;4.89;100.00
45621;BME280;31345;51.522;10.702;2023-12-20T07:59:39;98626.97;;;4.86;100.00
45621;BME280;31345;51.522;10.702;2023-12-20T08:02:07;98639.72;;;4.73;100.00
45621;BME280;31345;51.522;10.702;2023-12-20T08:04:34;98633.69;;;4.72;100.00
45621;BME280;31345;51.522;10.702;2023-12-20T08:07:08;98640.84;;;4.85;100.00
45621;BME280;31345;51.522;10.702;2023-12-20T08:09:40;98652.00;;;4.87;100.00
45621;BME280;31345;51.522;10.702;2023-12-20T08:12:14;98645.38;;;4.81;100.00
45621;BME280;31345;51.522;10.702;2023-12-20T08:14:48;98647.41;;;4.92;100.00
45621;BME280;31345;51.522;10.702;2023-12-20T08:17:20;98643.59;;;5.00;100.00
45621;BME280;31345;51.522;10.702;2023-12-20T08:19:49;98645.78;;;5.07;100.00
45621;BME280;31345;51.522;10.702;2023-12-20T08:22:23;98654.53;;;5.22;100.00
45621;BME280;31345;51.522;10.702;2023-12-20T08:24:56;98659.06;;;5.36;100.00
45621;BME280;31345;51.522;10.702;2023-12-20T08:27:28;98660.72;;;5.37;100.00
45621;BME280;31345;51.522;10.702;2023-12-20T08:29:57;98648.75;;;5.35;100.00
45621;BME280;31345;51.522;10.702;2023-12-20T08:32:30;98662.50;;;5.19;100.00
45621;BME280;31345;51.522;10.702;2023-12-20T08:34:58;98667.75;;;5.18;100.00
45621;BME280;31345;51.522;10.702;2023-12-20T08:37:27;98672.94;;;5.18;100.00
45621;BME280;31345;51.522;10.702;2023-12-20T08:39:54;98675.28;;;5.22;100.00
45621;BME280;31345;51.522;10.702;2023-12-20T08:42:26;98694.22;;;5.07;100.00
45621;BME280;31345;51.522;10.702;2023-12-20T08:45:02;98704.41;;;5.10;100.00
45621;BME280;31345;51.522;10.702;2023-12-20T08:47:35;98702.81;;;5.07;100.00
45621;BME280;31345;51.522;10.702;2023-12-20T08:50:08;98692.97;;;4.96;100.00
45621;BME280;31345;51.522;10.702;2023-12-20T08:52:37;98700.81;;;4.95;100.00
45621;BME280;31345;51.522;10.702;2023-12-20T08:55:05;98712.63;;;5.01;100.00
45621;BME280;31345;51.522;10.702;2023-12-20T08:57:33;98706.53;;;5.02;100.00
45621;BME280;31345;51.522;10.702;2023-12-20T09:00:00;98697.38;;;4.94;100.00
45621;BME280;31345;51.522;10.702;2023-12-20T09:02:32;98700.53;;;5.01;100.00
45621;BME280;31345;51.522;10.702;2023-12-20T09:05:02;98703.78;;;5.05;100.00
45621;BME280;31345;51.522;10.702;2023-12-20T09:07:34;98702.44;;;5.15;100.00
45621;BME280;31345;51.522;10.702;2023-12-20T09:10:08;98693.34;;;5.24;100.00
45621;BME280;31345;51.522;10.702;2023-12-20T09:12:36;98690.16;;;5.36;100.00
45621;BME280;31345;51.522;10.702;2023-12-20T09:15:06;98687.75;;;5.49;100.00
45621;BME280;31345;51.522;10.702;2023-12-20T09:17:34;98689.53;;;5.49;100.00
45621;BME280;31345;51.522;10.702;2023-12-20T09:20:02;98683.09;;;5.56;100.00
45621;BME280;31345;51.522;10.702;2023-12-20T09:22:32;98677.00;;;5.57;100.00
45621;BME280;31345;51.522;10.702;2023-12-20T09:24:59;98677.44;;;5.66;100.00
45621;BME280;31345;51.522;10.702;2023-12-20T09:27:29;98683.59;;;5.97;100.00
45621;BME280;31345;51.522;10.702;2023-12-20T09:29:56;98674.41;;;6.23;100.00
45621;BME280;31345;51.522;10.702;2023-12-20T09:32:24;98667.34;;;5.93;100.00
45621;BME280;31345;51.522;10.702;2023-12-20T09:34:57;98678.91;;;6.04;100.00
45621;BME280;31345;51.522;10.702;2023-12-20T09:37:29;98679.06;;;6.00;100.00
45621;BME280;31345;51.522;10.702;2023-12-20T09:40:02;98679.25;;;6.30;100.00
45621;BME280;31345;51.522;10.702;2023-12-20T09:42:39;98683.63;;;6.29;100.00
45621;BME280;31345;51.522;10.702;2023-12-20T09:45:13;98667.44;;;6.24;100.00
45621;BME280;31345;51.522;10.702;2023-12-20T09:47:43;98671.38;;;6.15;100.00
45621;BME280;31345;51.522;10.702;2023-12-20T09:50:12;98670.03;;;6.24;100.00
45621;BME280;31345;51.522;10.702;2023-12-20T09:52:41;98656.66;;;5.99;100.00
45621;BME280;31345;51.522;10.702;2023-12-20T09:55:17;98646.25;;;5.99;100.00
45621;BME280;31345;51.522;10.702;2023-12-20T09:57:51;98630.50;;;6.19;100.00
45621;BME280;31345;51.522;10.702;2023-12-20T10:00:23;98626.50;;;6.13;100.00
45621;BME280;31345;51.522;10.702;2023-12-20T10:02:57;98627.66;;;6.07;100.00
45621;BME280;31345;51.522;10.702;2023-12-20T10:05:30;98631.59;;;6.14;100.00
45621;BME280;31345;51.522;10.702;2023-12-20T10:08:03;98628.16;;;6.14;100.00
45621;BME280;31345;51.522;10.702;2023-12-20T10:10:31;98627.59;;;6.09;100.00
45621;BME280;31345;51.522;10.702;2023-12-20T10:13:05;98629.53;;;6.05;100.00
45621;BME280;31345;51.522;10.702;2023-12-20T10:15:33;98619.56;;;6.13;100.00
45621;BME280;31345;51.522;10.702;2023-12-20T10:18:00;98625.31;;;6.02;100.00
45621;BME280;31345;51.522;10.702;2023-12-20T10:20:33;98621.75;;;6.05;100.00
45621;BME280;31345;51.522;10.702;2023-12-20T10:23:06;98615.44;;;5.93;100.00
45621;BME280;31345;51.522;10.702;2023-12-20T10:25:38;98624.00;;;5.95;100.00
45621;BME280;31345;51.522;10.702;2023-12-20T10:28:13;98606.06;;;5.91;100.00
45621;BME280;31345;51.522;10.702;2023-12-20T10:30:49;98614.63;;;5.93;100.00
45621;BME280;31345;51.522;10.702;2023-12-20T10:33:23;98619.81;;;5.93;100.00
45621;BME280;31345;51.522;10.702;2023-12-20T10:35:52;98612.13;;;5.91;100.00
45621;BME280;31345;51.522;10.702;2023-12-20T10:38:25;98603.16;;;5.97;100.00
45621;BME280;31345;51.522;10.702;2023-12-20T10:40:57;98602.88;;;6.01;100.00
45621;BME280;31345;51.522;10.702;2023-12-20T10:43:28;98603.25;;;5.95;100.00
45621;BME280;31345;51.522;10.702;2023-12-20T10:46:03;98595.19;;;6.00;100.00
45621;BME280;31345;51.522;10.702;2023-12-20T10:48:32;98592.09;;;6.09;100.00
45621;BME280;31345;51.522;10.702;2023-12-20T10:51:01;98591.81;;;6.14;100.00
45621;BME280;31345;51.522;10.702;2023-12-20T10:53:30;98594.94;;;6.21;100.00
45621;BME280;31345;51.522;10.702;2023-12-20T10:56:00;98578.75;;;6.32;100.00
45621;BME280;31345;51.522;10.702;2023-12-20T10:58:33;98566.56;;;6.48;100.00
45621;BME280;31345;51.522;10.702;2023-12-20T11:01:05;98566.94;;;6.57;100.00
45621;BME280;31345;51.522;10.702;2023-12-20T11:03:35;98555.72;;;6.56;100.00
45621;BME280;31345;51.522;10.702;2023-12-20T11:06:07;98557.22;;;6.60;100.00
45621;BME280;31345;51.522;10.702;2023-12-20T11:08:43;98558.91;;;6.61;100.00
45621;BME280;31345;51.522;10.702;2023-12-20T11:11:15;98551.03;;;6.63;100.00
45621;BME280;31345;51.522;10.702;2023-12-20T11:13:55;98553.41;;;6.66;100.00
45621;BME280;31345;51.522;10.702;2023-12-20T11:16:31;98547.66;;;6.61;100.00
45621;BME280;31345;51.522;10.702;2023-12-20T11:19:04;98547.31;;;6.67;100.00
45621;BME280;31345;51.522;10.702;2023-12-20T11:21:32;98542.72;;;6.56;99.85
45621;BME280;31345;51.522;10.702;2023-12-20T11:24:00;98533.41;;;6.68;100.00
45621;BME280;31345;51.522;10.702;2023-12-20T11:26:32;98525.47;;;6.55;100.00
45621;BME280;31345;51.522;10.702;2023-12-20T11:29:36;98537.38;;;6.59;100.00
45621;BME280;31345;51.522;10.702;2023-12-20T11:32:30;98533.56;;;6.65;100.00
45621;BME280;31345;51.522;10.702;2023-12-20T11:34:59;98524.63;;;6.54;100.00
45621;BME280;31345;51.522;10.702;2023-12-20T11:37:29;98511.09;;;6.49;99.26
45621;BME280;31345;51.522;10.702;2023-12-20T11:40:00;98512.09;;;6.47;99.45
45621;BME280;31345;51.522;10.702;2023-12-20T11:42:32;98513.63;;;6.65;100.00
45621;BME280;31345;51.522;10.702;2023-12-20T11:45:03;98508.09;;;6.41;100.00
45621;BME280;31345;51.522;10.702;2023-12-20T11:47:31;98508.66;;;6.32;100.00
45621;BME280;31345;51.522;10.702;2023-12-20T11:49:59;98502.28;;;6.37;100.00
45621;BME280;31345;51.522;10.702;2023-12-20T11:52:29;98511.66;;;6.24;100.00
45621;BME280;31345;51.522;10.702;2023-12-20T11:54:57;98495.38;;;6.36;100.00
45621;BME280;31345;51.522;10.702;2023-12-20T11:57:29;98495.75;;;6.30;100.00
45621;BME280;31345;51.522;10.702;2023-12-20T12:00:04;98497.97;;;6.36;100.00
45621;BME280;31345;51.522;10.702;2023-12-20T12:02:38;98490.06;;;6.69;100.00
45621;BME280;31345;51.522;10.702;2023-12-20T12:05:10;98472.81;;;6.53;100.00
45621;BME280;31345;51.522;10.702;2023-12-20T12:07:38;98483.75;;;6.58;100.00
45621;BME280;31345;51.522;10.702;2023-12-20T12:10:06;98479.78;;;6.67;100.00
45621;BME280;31345;51.522;10.702;2023-12-20T12:12:39;98481.34;;;6.84;99.77
45621;BME280;31345;51.522;10.702;2023-12-20T12:15:14;98466.50;;;7.01;98.69
45621;BME280;31345;51.522;10.702;2023-12-20T12:17:52;98462.22;;;7.00;98.82
45621;BME280;31345;51.522;10.702;2023-12-20T12:20:20;98450.44;;;6.65;97.57
45621;BME280;31345;51.522;10.702;2023-12-20T12:22:59;98453.03;;;6.50;99.03
45621;BME280;31345;51.522;10.702;2023-12-20T12:25:28;98450.53;;;6.63;99.29
45621;BME280;31345;51.522;10.702;2023-12-20T12:27:56;98439.50;;;6.60;100.00
45621;BME280;31345;51.522;10.702;2023-12-20T12:30:31;98434.59;;;6.55;100.00
45621;BME280;31345;51.522;10.702;2023-12-20T12:33:00;98434.75;;;6.52;100.00
45621;BME280;31345;51.522;10.702;2023-12-20T12:35:32;98435.78;;;6.49;100.00
45621;BME280;31345;51.522;10.702;2023-12-20T12:38:07;98426.78;;;6.55;100.00
45621;BME280;31345;51.522;10.702;2023-12-20T12:40:43;98415.22;;;6.75;100.00
45621;BME280;31345;51.522;10.702;2023-12-20T12:43:16;98414.63;;;6.85;100.00
45621;BME280;31345;51.522;10.702;2023-12-20T12:45:46;98399.97;;;6.84;99.68
45621;BME280;31345;51.522;10.702;2023-12-20T12:48:19;98396.78;;;6.93;100.00
45621;BME280;31345;51.522;10.702;2023-12-20T12:50:46;98391.88;;;6.88;100.00
45621;BME280;31345;51.522;10.702;2023-12-20T12:53:19;98402.00;;;6.93;100.00
45621;BME280;31345;51.522;10.702;2023-12-20T12:55:53;98400.59;;;6.87;100.00
45621;BME280;31345;51.522;10.702;2023-12-20T12:58:22;98403.13;;;6.89;100.00
45621;BME280;31345;51.522;10.702;2023-12-20T13:00:58;98409.69;;;6.95;100.00
45621;BME280;31345;51.522;10.702;2023-12-20T13:03:31;98403.78;;;6.78;100.00
45621;BME280;31345;51.522;10.702;2023-12-20T13:05:58;98404.06;;;6.88;100.00
45621;BME280;31345;51.522;10.702;2023-12-20T13:08:31;98397.38;;;6.84;100.00
45621;BME280;31345;51.522;10.702;2023-12-20T13:10:59;98401.81;;;6.82;100.00
45621;BME280;31345;51.522;10.702;2023-12-20T13:13:27;98410.84;;;7.18;100.00
45621;BME280;31345;51.522;10.702;2023-12-20T13:15:54;98409.06;;;6.76;100.00